Time;durP1;ratioP1;P1;durP2;ratioP2;P2;SDS_P1;SDS_P2;PMS_P1;PMS_P2;Temp;Humidity;BMP_temperature;BMP_pressure;BME280_temperature;BME280_humidity;BME280_pressure;Samples;Min_cycle;Max_cycle;Signal;HPM_P1;HPM_P2
2022/09/28 00:01:17;;;;;;;16.52;2.83;;;;;;;7.49;100.00;99528.56;4992959;28;20026;-78
2022/09/28 00:03:43;;;;;;;17.17;3.60;;;;;;;7.50;100.00;99526.69;4975928;28;20117;-78
2022/09/28 00:06:11;;;;;;;19.75;4.57;;;;;;;7.48;100.00;99526.91;4975424;28;20045;-78
2022/09/28 00:08:36;;;;;;;12.48;3.28;;;;;;;7.49;100.00;99533.91;4996771;28;20030;-78
2022/09/28 00:11:03;;;;;;;12.30;3.10;;;;;;;7.49;100.00;99520.53;4993692;28;20054;-77
2022/09/28 00:13:30;;;;;;;18.75;3.65;;;;;;;7.50;100.00;99519.50;4994076;28;20068;-79
2022/09/28 00:16:03;;;;;;;11.88;3.40;;;;;;;7.48;100.00;99510.84;4976547;28;20027;-79
2022/09/28 00:18:29;;;;;;;13.25;3.60;;;;;;;7.48;100.00;99510.84;4979083;28;20023;-79
2022/09/28 00:21:03;;;;;;;21.38;4.70;;;;;;;7.43;100.00;99510.59;4993279;28;20030;-78
2022/09/28 00:23:29;;;;;;;13.52;3.70;;;;;;;7.42;100.00;99503.56;4995131;28;20065;-77
2022/09/28 00:25:54;;;;;;;19.70;3.65;;;;;;;7.42;100.00;99508.94;4982112;28;20495;-77
2022/09/28 00:28:19;;;;;;;15.50;3.38;;;;;;;7.41;100.00;99508.09;4999006;28;20027;-77
2022/09/28 00:30:45;;;;;;;12.15;4.38;;;;;;;7.40;100.00;99513.66;4998865;28;20478;-78
2022/09/28 00:33:10;;;;;;;13.57;3.72;;;;;;;7.43;100.00;99529.34;4998707;28;20497;-78
2022/09/28 00:35:36;;;;;;;16.67;3.85;;;;;;;7.48;100.00;99546.47;4998504;28;20045;-77
2022/09/28 00:38:02;;;;;;;19.05;3.72;;;;;;;7.60;100.00;99533.38;4999322;28;20022;-78
2022/09/28 00:40:28;;;;;;;6.85;3.45;;;;;;;7.66;100.00;99513.88;4996229;28;20026;-77
2022/09/28 00:42:53;;;;;;;11.13;3.92;;;;;;;7.68;100.00;99505.63;4995282;28;20041;-79
2022/09/28 00:45:19;;;;;;;8.48;2.67;;;;;;;7.67;100.00;99503.97;5009257;28;20011;-82
2022/09/28 00:47:50;;;;;;;13.38;2.38;;;;;;;7.70;100.00;99508.94;5016181;28;20046;-84
2022/09/28 00:50:20;;;;;;;13.57;2.53;;;;;;;7.70;100.00;99515.09;5016249;28;20030;-83
2022/09/28 00:52:59;;;;;;;11.30;2.65;;;;;;;7.80;100.00;99544.22;5011140;28;20030;-81
2022/09/28 00:55:33;;;;;;;14.77;2.75;;;;;;;8.01;100.00;99558.59;5009455;28;20061;-80
2022/09/28 00:58:00;;;;;;;10.43;3.10;;;;;;;8.04;100.00;99534.91;5004729;28;20042;-79
2022/09/28 01:00:26;;;;;;;10.30;2.38;;;;;;;7.97;100.00;99543.91;4993118;28;20053;-77
2022/09/28 01:02:51;;;;;;;14.27;2.65;;;;;;;7.94;100.00;99536.28;4995253;28;20042;-79
2022/09/28 01:05:17;;;;;;;11.50;1.65;;;;;;;7.93;100.00;99526.59;5002437;28;20026;-79
2022/09/28 01:07:43;;;;;;;9.95;1.35;;;;;;;7.95;100.00;99533.38;5004958;28;20113;-79
2022/09/28 01:10:09;;;;;;;12.32;1.70;;;;;;;7.98;100.00;99522.31;4992980;28;20026;-79
2022/09/28 01:12:34;;;;;;;15.40;1.63;;;;;;;8.02;100.00;99522.72;4977228;28;20030;-78
2022/09/28 01:15:00;;;;;;;13.57;1.50;;;;;;;8.05;100.00;99517.78;4995784;28;20030;-77
2022/09/28 01:18:10;;;;;;;17.67;0.93;;;;;;;8.12;100.00;99521.34;5005464;28;20094;-79
2022/09/28 01:20:50;;;;;;;15.90;1.42;;;;;;;8.13;100.00;99509.56;4967699;28;20042;-81
2022/09/28 01:23:21;;;;;;;14.25;1.13;;;;;;;8.18;100.00;99510.84;5007840;28;20028;-81
2022/09/28 01:25:56;;;;;;;16.27;1.10;;;;;;;8.19;100.00;99507.13;5008502;28;20034;-83
2022/09/28 01:28:26;;;;;;;14.50;0.90;;;;;;;8.21;100.00;99510.44;5000816;28;20030;-83
2022/09/28 01:31:08;;;;;;;15.00;1.60;;;;;;;8.28;100.00;99503.28;4997140;28;20100;-82
2022/09/28 01:33:39;;;;;;;14.63;1.17;;;;;;;8.31;100.00;99511.72;5006283;28;20061;-83
2022/09/28 01:36:04;;;;;;;4.70;0.90;;;;;;;8.38;100.00;99500.22;4988892;28;20133;-84
2022/09/28 01:38:52;;;;;;;8.02;1.00;;;;;;;8.39;100.00;99502.72;5009399;28;20030;-81
2022/09/28 01:41:19;;;;;;;12.40;0.95;;;;;;;8.41;100.00;99506.03;5000041;28;20105;-79
2022/09/28 01:43:48;;;;;;;21.23;1.45;;;;;;;8.47;100.00;99499.84;5006668;28;20031;-79
2022/09/28 01:46:18;;;;;;;16.60;1.35;;;;;;;8.49;100.00;99497.81;5011093;28;20025;-82
2022/09/28 01:49:07;;;;;;;11.65;2.28;;;;;;;8.51;100.00;99501.13;5014462;28;20026;-81
2022/09/28 01:51:45;;;;;;;10.13;0.93;;;;;;;8.54;100.00;99490.00;5002898;28;20138;-83
2022/09/28 01:54:17;;;;;;;6.25;0.80;;;;;;;8.52;100.00;99493.91;5007750;28;20054;-82
2022/09/28 01:57:10;;;;;;;13.45;1.15;;;;;;;8.63;100.00;99503.22;4980391;28;20068;-81
2022/09/28 01:59:37;;;;;;;4.28;0.82;;;;;;;8.56;100.00;99498.66;4994356;28;20090;-82
2022/09/28 02:02:10;;;;;;;10.88;1.00;;;;;;;8.56;100.00;99493.31;4992389;28;20053;-80
2022/09/28 02:04:44;;;;;;;7.60;0.80;;;;;;;8.55;100.00;99490.81;4975609;28;20026;-80
2022/09/28 02:07:15;;;;;;;12.63;1.08;;;;;;;8.54;100.00;99500.72;4992875;28;20382;-80
2022/09/28 02:09:51;;;;;;;10.60;0.63;;;;;;;8.54;100.00;99500.72;4992646;28;20085;-80
2022/09/28 02:12:39;;;;;;;15.93;0.93;;;;;;;8.52;100.00;99493.91;4991557;28;20492;-79
2022/09/28 02:15:13;;;;;;;;;;;;;;;8.51;100.00;99495.75;4993317;28;20092;-79
2022/09/28 02:17:39;;;;;;;4.60;0.32;;;;;;;8.49;100.00;99491.63;4993254;28;19922;-79
2022/09/28 02:20:04;;;;;;;1.85;0.50;;;;;;;8.49;100.00;99497.00;4992542;28;20175;-79
2022/09/28 02:22:39;;;;;;;11.00;0.60;;;;;;;8.46;100.00;99492.03;4970925;28;20034;-79
2022/09/28 02:25:08;;;;;;;8.23;0.70;;;;;;;8.45;100.00;99501.94;4988300;28;20035;-79
2022/09/28 02:27:39;;;;;;;11.40;0.85;;;;;;;8.42;100.00;99496.13;4991398;28;20030;-80
2022/09/28 02:30:06;;;;;;;6.28;0.70;;;;;;;8.42;100.00;99496.94;4974487;28;20050;-78
2022/09/28 02:32:34;;;;;;;17.17;1.13;;;;;;;8.44;100.00;99505.63;4992397;28;20034;-78
2022/09/28 02:34:59;;;;;;;9.75;0.90;;;;;;;8.42;100.00;99505.00;4991743;28;20033;-79
2022/09/28 02:37:26;;;;;;;10.07;0.82;;;;;;;8.42;100.00;99504.19;4994423;28;20030;-79
2022/09/28 02:39:51;;;;;;;8.23;0.60;;;;;;;8.44;100.00;99505.63;4996922;28;20043;-78
2022/09/28 02:42:22;;;;;;;7.35;0.90;;;;;;;8.46;100.00;99510.81;5000663;28;20060;-79
2022/09/28 02:45:12;;;;;;;2.22;0.80;;;;;;;8.47;100.00;99513.25;4988319;28;20038;-78
2022/09/28 02:47:40;;;;;;;7.68;0.77;;;;;;;8.49;100.00;99523.81;4992791;28;20027;-78
2022/09/28 02:50:28;;;;;;;9.13;0.57;;;;;;;8.49;100.00;99519.25;4999974;28;20054;-78
2022/09/28 02:53:09;;;;;;;5.55;1.25;;;;;;;8.51;100.00;99517.22;4996773;28;20022;-78
2022/09/28 02:56:05;;;;;;;7.57;0.88;;;;;;;8.44;100.00;99516.34;4998185;28;20033;-78
2022/09/28 02:58:36;;;;;;;4.85;0.90;;;;;;;8.43;100.00;99519.25;4997276;28;20497;-78
2022/09/28 03:01:23;;;;;;;13.68;1.30;;;;;;;8.46;100.00;99518.84;4999726;28;20038;-78
2022/09/28 03:03:56;;;;;;;12.65;0.77;;;;;;;8.39;100.00;99513.44;5000133;28;20057;-78
2022/09/28 03:06:47;;;;;;;9.48;0.70;;;;;;;8.35;100.00;99520.22;4987897;28;20049;-78
2022/09/28 03:09:24;;;;;;;5.30;0.70;;;;;;;8.35;100.00;99509.50;4996737;28;20074;-78
2022/09/28 03:11:56;;;;;;;14.48;0.98;;;;;;;8.35;100.00;99515.69;4998755;28;20047;-78
2022/09/28 03:14:21;;;;;;;2.17;0.63;;;;;;;8.43;100.00;99509.34;4984731;28;20026;-78
2022/09/28 03:16:46;;;;;;;5.30;0.77;;;;;;;8.33;100.00;99500.81;5001833;28;20080;-78
2022/09/28 03:19:12;;;;;;;10.15;1.05;;;;;;;8.24;100.00;99499.31;5001772;28;20026;-78
2022/09/28 03:21:38;;;;;;;8.10;0.93;;;;;;;8.19;100.00;99496.41;4999934;28;20269;-78
2022/09/28 03:24:04;;;;;;;10.38;1.23;;;;;;;8.15;100.00;99501.34;5000132;28;20026;-78
2022/09/28 03:26:30;;;;;;;7.75;1.13;;;;;;;8.11;100.00;99492.91;5001235;28;20394;-78
2022/09/28 03:28:56;;;;;;;6.38;1.10;;;;;;;8.09;100.00;99502.16;5003029;28;20041;-78
2022/09/28 03:31:21;;;;;;;13.43;1.65;;;;;;;8.14;100.00;99505.06;5000172;28;20034;-77
2022/09/28 03:33:47;;;;;;;6.03;0.82;;;;;;;8.21;100.00;99510.44;4999897;28;20497;-79
2022/09/28 03:36:13;;;;;;;14.00;1.08;;;;;;;8.32;100.00;99526.81;4994491;28;20035;-77
2022/09/28 03:38:39;;;;;;;6.57;0.85;;;;;;;8.41;100.00;99532.84;4995014;28;20027;-77
2022/09/28 03:41:04;;;;;;;10.40;1.20;;;;;;;8.47;100.00;99529.34;4994942;28;20034;-81
2022/09/28 03:43:30;;;;;;;6.82;1.50;;;;;;;8.49;100.00;99540.72;5004702;28;20077;-79
2022/09/28 03:45:57;;;;;;;3.30;0.88;;;;;;;8.51;100.00;99530.63;5013359;28;20033;-83
2022/09/28 03:48:23;;;;;;;9.90;1.07;;;;;;;8.59;100.00;99523.44;5001114;28;20038;-80
2022/09/28 03:50:56;;;;;;;5.70;1.00;;;;;;;8.48;100.00;99520.31;5005250;28;20034;-80
2022/09/28 03:53:21;;;;;;;6.20;0.85;;;;;;;8.37;100.00;99526.19;5004427;28;20508;-82
2022/09/28 03:55:47;;;;;;;15.80;1.17;;;;;;;8.28;100.00;99520.16;5004485;28;20026;-81
2022/09/28 03:58:13;;;;;;;8.63;1.15;;;;;;;8.20;100.00;99512.31;5000156;28;20405;-80
2022/09/28 04:00:38;;;;;;;10.00;1.00;;;;;;;8.14;100.00;99511.25;5012834;28;20034;-82
2022/09/28 04:03:03;;;;;;;9.48;1.02;;;;;;;8.19;100.00;99526.75;5013226;28;20041;-80
2022/09/28 04:05:29;;;;;;;3.92;1.02;;;;;;;8.32;100.00;99524.13;5015470;28;20037;-81
2022/09/28 04:07:57;;;;;;;9.38;0.93;;;;;;;8.31;100.00;99521.63;5017495;28;20034;-80
2022/09/28 04:10:24;;;;;;;10.50;1.08;;;;;;;8.23;100.00;99527.16;5010502;28;20038;-81
2022/09/28 04:12:53;;;;;;;9.57;1.05;;;;;;;8.19;100.00;99531.25;5001755;28;20493;-81
2022/09/28 04:15:19;;;;;;;7.03;1.00;;;;;;;8.17;100.00;99527.97;4997989;28;20110;-81
2022/09/28 04:17:44;;;;;;;9.75;1.17;;;;;;;8.18;100.00;99518.88;4997831;28;20069;-80
2022/09/28 04:20:09;;;;;;;13.02;1.67;;;;;;;8.20;100.00;99525.72;4996613;28;20030;-80
2022/09/28 04:22:36;;;;;;;8.20;1.27;;;;;;;8.22;100.00;99525.53;4996023;28;20030;-80
2022/09/28 04:25:02;;;;;;;4.22;1.08;;;;;;;8.19;100.00;99520.53;4996115;28;20136;-80
2022/09/28 04:30:12;;;;;;;14.38;1.42;;;;;;;8.14;100.00;99518.47;4991021;28;20073;-80
2022/09/28 04:32:37;;;;;;;10.57;2.00;;;;;;;8.10;100.00;99520.69;4986574;28;20030;-80
2022/09/28 04:35:03;;;;;;;6.13;1.70;;;;;;;8.10;100.00;99525.25;4992343;28;20030;-79
2022/09/28 04:37:30;;;;;;;6.40;1.27;;;;;;;8.09;100.00;99527.09;4992678;28;20065;-79
2022/09/28 04:39:55;;;;;;;10.13;1.30;;;;;;;8.10;100.00;99523.38;4992706;28;20426;-79
2022/09/28 04:42:20;;;;;;;6.57;1.20;;;;;;;8.11;100.00;99522.38;4992947;28;20034;-79
2022/09/28 04:44:46;;;;;;;8.63;1.23;;;;;;;8.13;100.00;99516.78;4990905;28;20054;-79
2022/09/28 04:47:11;;;;;;;13.23;2.90;;;;;;;8.17;100.00;99520.75;4992791;28;20037;-79
2022/09/28 04:49:38;;;;;;;9.75;1.58;;;;;;;8.23;100.00;99519.13;4993286;28;20026;-78
2022/09/28 04:52:04;;;;;;;12.45;1.85;;;;;;;8.23;100.00;99519.13;4995154;28;20164;-79
2022/09/28 04:54:29;;;;;;;11.50;2.05;;;;;;;8.24;100.00;99512.72;4996073;28;20038;-79
2022/09/28 04:56:56;;;;;;;17.83;1.60;;;;;;;8.25;100.00;99503.69;4997204;28;20026;-78
2022/09/28 04:59:21;;;;;;;11.02;2.38;;;;;;;8.21;100.00;99513.13;4992923;28;20030;-79
2022/09/28 05:01:47;;;;;;;17.83;2.20;;;;;;;8.19;100.00;99513.34;4992665;28;20041;-78
2022/09/28 05:04:12;;;;;;;10.00;2.03;;;;;;;8.13;100.00;99525.66;4996282;28;20096;-78
2022/09/28 05:06:37;;;;;;;8.18;2.10;;;;;;;8.12;100.00;99534.72;4993892;28;20750;-78
2022/09/28 05:09:03;;;;;;;6.75;1.85;;;;;;;8.12;100.00;99539.28;4993358;28;20042;-78
2022/09/28 05:11:28;;;;;;;10.52;2.00;;;;;;;8.09;100.00;99534.31;4993085;28;20050;-78
2022/09/28 05:13:53;;;;;;;8.18;2.05;;;;;;;8.11;100.00;99524.22;4995093;28;20128;-78
2022/09/28 05:16:19;;;;;;;7.68;1.63;;;;;;;8.17;100.00;99533.31;4995812;28;20466;-78
2022/09/28 05:18:45;;;;;;;12.10;1.70;;;;;;;8.31;100.00;99537.72;4993031;28;20022;-78
2022/09/28 05:21:11;;;;;;;9.13;1.70;;;;;;;8.36;100.00;99548.66;4983920;28;20046;-78
2022/09/28 05:23:38;;;;;;;9.35;4.78;;;;;;;8.32;100.00;99544.72;4990071;28;20517;-78
2022/09/28 05:26:03;;;;;;;15.25;5.35;;;;;;;8.30;100.00;99538.75;4997959;28;20105;-78
2022/09/28 05:28:30;;;;;;;10.73;2.65;;;;;;;8.30;100.00;99544.09;4993709;28;20062;-78
2022/09/28 05:30:59;;;;;;;7.50;2.40;;;;;;;8.34;100.00;99543.50;4991679;28;20069;-79
2022/09/28 05:33:25;;;;;;;10.90;2.67;;;;;;;8.31;100.00;99541.22;4991235;28;20057;-80
2022/09/28 05:35:51;;;;;;;7.97;2.35;;;;;;;8.27;100.00;99547.19;4992336;28;20038;-81
2022/09/28 05:38:16;;;;;;;10.85;2.80;;;;;;;8.23;100.00;99544.06;4975016;28;20042;-81
2022/09/28 05:40:41;;;;;;;7.97;2.25;;;;;;;8.22;100.00;99541.59;4986771;28;20414;-80
2022/09/28 05:43:07;;;;;;;9.23;2.65;;;;;;;8.20;100.00;99549.00;4990230;28;20381;-79
2022/09/28 05:45:32;;;;;;;6.03;2.30;;;;;;;8.20;100.00;99544.47;4991131;28;20049;-79
2022/09/28 05:47:57;;;;;;;13.50;2.70;;;;;;;8.19;100.00;99544.66;4982568;28;20137;-79
2022/09/28 05:50:23;;;;;;;8.20;2.78;;;;;;;8.21;100.00;99542.59;4990426;28;20474;-79
2022/09/28 05:53:02;;;;;;;12.98;2.35;;;;;;;8.19;100.00;99544.66;4992253;28;20057;-80
2022/09/28 05:55:28;;;;;;;6.85;2.35;;;;;;;8.20;100.00;99541.78;4991229;28;20054;-80
2022/09/28 05:57:57;;;;;;;8.98;2.58;;;;;;;8.18;100.00;99527.75;4988377;28;20041;-80
2022/09/28 06:00:23;;;;;;;21.05;2.22;;;;;;;8.17;100.00;99533.31;4987927;28;20045;-80
2022/09/28 06:03:02;;;;;;;17.20;2.50;;;;;;;8.13;100.00;99530.19;4988482;28;20034;-79
2022/09/28 06:05:28;;;;;;;9.20;2.60;;;;;;;8.06;100.00;99530.19;4978275;28;20129;-80
2022/09/28 06:08:00;;;;;;;11.43;2.70;;;;;;;8.02;100.00;99522.72;4989331;28;20054;-80
2022/09/28 06:10:27;;;;;;;11.35;2.90;;;;;;;8.00;100.00;99522.91;4990759;28;20384;-80
2022/09/28 06:12:56;;;;;;;11.02;2.47;;;;;;;7.98;100.00;99530.34;4975809;28;20062;-80
2022/09/28 06:15:27;;;;;;;11.50;2.53;;;;;;;7.96;100.00;99532.38;4992440;28;20050;-77
2022/09/28 06:18:00;;;;;;;24.00;4.15;;;;;;;7.94;100.00;99531.75;4991347;28;20062;-77
2022/09/28 06:20:26;;;;;;;14.52;2.75;;;;;;;7.95;100.00;99533.38;4993368;28;20034;-78
2022/09/28 06:22:52;;;;;;;14.15;2.95;;;;;;;7.95;100.00;99544.09;4991939;28;20031;-78
2022/09/28 06:25:18;;;;;;;10.23;2.58;;;;;;;7.95;100.00;99535.25;4992996;28;20034;-78
2022/09/28 06:27:53;;;;;;;4.55;2.05;;;;;;;8.01;100.00;99542.50;4993907;28;20176;-78
2022/09/28 06:30:18;;;;;;;12.90;3.80;;;;;;;8.09;100.00;99543.19;4993732;28;20029;-78
2022/09/28 06:32:43;;;;;;;11.98;2.75;;;;;;;8.35;100.00;99555.06;4994273;28;20049;-78
2022/09/28 06:35:09;;;;;;;10.60;3.20;;;;;;;8.57;100.00;99569.22;4992336;28;20029;-78
2022/09/28 06:37:34;;;;;;;18.20;4.32;;;;;;;8.60;100.00;99562.63;4994899;28;20030;-80
2022/09/28 06:40:00;;;;;;;12.95;3.17;;;;;;;8.68;100.00;99579.34;5001007;28;20097;-82
2022/09/28 06:42:25;;;;;;;9.13;3.35;;;;;;;8.73;100.00;99584.94;4992484;28;20042;-80
2022/09/28 06:44:50;;;;;;;10.05;3.50;;;;;;;8.69;100.00;99599.81;4991115;28;20041;-81
2022/09/28 06:47:16;;;;;;;17.27;3.00;;;;;;;8.68;100.00;99613.41;4998712;28;20072;-82
2022/09/28 06:49:41;;;;;;;14.55;3.70;;;;;;;8.79;100.00;99610.13;4998163;28;20034;-81
2022/09/28 06:52:07;;;;;;;18.00;4.13;;;;;;;8.77;100.00;99601.50;5007041;28;20065;-82
2022/09/28 06:54:32;;;;;;;17.13;3.70;;;;;;;8.77;100.00;99593.44;5013106;28;20041;-84
2022/09/28 06:56:57;;;;;;;14.15;4.75;;;;;;;8.77;100.00;99588.91;5013315;28;20106;-85
2022/09/28 06:59:23;;;;;;;15.68;4.00;;;;;;;8.74;100.00;99583.09;5010671;28;20445;-82
2022/09/28 07:01:48;;;;;;;13.75;3.92;;;;;;;8.64;100.00;99593.38;4995238;28;20023;-82
2022/09/28 07:04:13;;;;;;;7.95;2.95;;;;;;;8.59;100.00;99595.84;4997992;28;20026;-82
2022/09/28 07:06:39;;;;;;;9.65;3.35;;;;;;;8.52;100.00;99593.13;4997905;28;20049;-80
2022/09/28 07:09:05;;;;;;;15.10;4.78;;;;;;;8.50;100.00;99589.78;4991016;28;20042;-81
2022/09/28 07:11:38;;;;;;;13.95;4.05;;;;;;;8.54;100.00;99591.88;4983387;28;20058;-83
2022/09/28 07:14:04;;;;;;;13.90;3.33;;;;;;;8.59;100.00;99588.63;4996249;28;20113;-83
2022/09/28 07:16:30;;;;;;;23.30;3.45;;;;;;;8.60;100.00;99600.16;4991629;28;20034;-81
2022/09/28 07:18:55;;;;;;;11.55;3.85;;;;;;;8.58;100.00;99592.31;4994850;28;20332;-82
2022/09/28 07:21:20;;;;;;;20.33;4.65;;;;;;;8.66;100.00;99599.34;4993655;28;20141;-81
2022/09/28 07:23:47;;;;;;;10.68;4.50;;;;;;;8.68;100.00;99591.94;4990665;28;20114;-81
2022/09/28 07:26:13;;;;;;;13.00;4.50;;;;;;;8.79;100.00;99594.03;4988193;28;20131;-81
2022/09/28 07:28:39;;;;;;;14.23;4.28;;;;;;;8.86;100.00;99596.75;4990402;28;20034;-80
2022/09/28 07:31:05;;;;;;;15.82;4.18;;;;;;;8.90;100.00;99604.22;4989490;28;20466;-81
2022/09/28 07:33:31;;;;;;;20.35;5.47;;;;;;;8.97;100.00;99601.53;4989025;28;20513;-80
2022/09/28 07:35:57;;;;;;;16.92;4.55;;;;;;;9.10;100.00;99601.56;4973238;28;20018;-80
2022/09/28 07:38:22;;;;;;;15.77;5.65;;;;;;;9.30;100.00;99606.19;4988040;28;20497;-80
2022/09/28 07:43:31;;;;;;;20.10;5.78;;;;;;;10.45;100.00;99612.97;4990019;28;20140;-77
2022/09/28 07:45:57;;;;;;;20.13;6.18;;;;;;;11.64;100.00;99622.31;4989130;28;20034;-78
2022/09/28 07:48:23;;;;;;;14.27;4.95;;;;;;;11.42;100.00;99624.50;4989947;28;20501;-78
2022/09/28 07:50:52;;;;;;;18.23;5.13;;;;;;;11.37;100.00;99635.13;4987726;28;20034;-78
2022/09/28 07:53:19;;;;;;;16.65;4.60;;;;;;;11.36;100.00;99621.88;4986514;28;20067;-77
2022/09/28 07:55:52;;;;;;;8.65;3.65;;;;;;;11.32;100.00;99618.78;4990321;28;20065;-78
2022/09/28 07:58:19;;;;;;;17.27;4.85;;;;;;;11.00;100.00;99623.28;4987148;28;20125;-78
2022/09/28 08:00:47;;;;;;;17.08;4.68;;;;;;;10.81;100.00;99614.28;4979933;28;20038;-77
2022/09/28 08:03:13;;;;;;;14.88;4.97;;;;;;;10.60;100.00;99617.25;4990631;28;20113;-79
2022/09/28 08:05:41;;;;;;;22.98;5.13;;;;;;;10.49;100.00;99621.44;4989864;28;20574;-79
2022/09/28 08:08:07;;;;;;;17.08;5.43;;;;;;;10.40;100.00;99625.38;4990471;28;20062;-78
2022/09/28 08:10:32;;;;;;;20.08;5.90;;;;;;;10.51;100.00;99630.13;4993254;28;20106;-79
2022/09/28 08:13:02;;;;;;;25.00;6.38;;;;;;;10.81;100.00;99635.00;4990271;28;20038;-79
2022/09/28 08:15:33;;;;;;;20.85;6.70;;;;;;;11.57;100.00;99651.16;4991764;28;20109;-78
2022/09/28 08:17:59;;;;;;;22.40;5.03;;;;;;;11.54;100.00;99651.59;4990744;28;20034;-78
2022/09/28 08:23:10;;;;;;;16.98;5.47;;;;;;;11.57;100.00;99640.38;4992713;28;20092;-79
2022/09/28 08:25:38;;;;;;;17.60;4.73;;;;;;;11.37;100.00;99639.66;4977094;28;20485;-79
2022/09/28 08:28:06;;;;;;;13.80;4.75;;;;;;;11.32;100.00;99634.97;4987798;28;20065;-79
2022/09/28 08:30:32;;;;;;;11.50;5.97;;;;;;;11.04;100.00;99627.22;4986707;28;20041;-81
2022/09/28 08:32:57;;;;;;;14.30;5.65;;;;;;;10.87;100.00;99639.50;4988984;28;20056;-82
2022/09/28 08:35:24;;;;;;;17.42;5.85;;;;;;;10.97;100.00;99637.19;4988501;28;20030;-82
2022/09/28 08:37:53;;;;;;;16.88;6.22;;;;;;;11.10;100.00;99634.44;4987475;28;20026;-82
2022/09/28 08:40:23;;;;;;;12.75;5.90;;;;;;;11.26;100.00;99640.38;4989890;28;20597;-81
2022/09/28 08:42:50;;;;;;;23.23;6.85;;;;;;;11.51;100.00;99652.03;4988961;28;20355;-82
2022/09/28 08:45:20;;;;;;;22.23;6.57;;;;;;;12.14;100.00;99651.16;4985781;28;20039;-80
2022/09/28 08:50:46;;;;;;;26.15;6.57;;;;;;;12.44;100.00;99651.28;4988446;28;20049;-80
2022/09/28 08:53:30;;;;;;;21.20;5.60;;;;;;;12.83;100.00;99649.19;4972357;28;20035;-80
2022/09/28 08:55:56;;;;;;;12.00;3.63;;;;;;;13.73;100.00;99643.00;4988937;28;20034;-79
2022/09/28 08:58:27;;;;;;;8.07;2.30;;;;;;;14.62;96.38;99642.94;4988597;28;20069;-79
2022/09/28 09:00:53;;;;;;;7.68;2.58;;;;;;;15.27;86.98;99649.13;4984720;28;20026;-78
2022/09/28 09:03:34;;;;;;;7.65;2.28;;;;;;;15.50;83.71;99645.47;4991442;28;20030;-78
2022/09/28 09:06:30;;;;;;;4.85;2.28;;;;;;;15.40;84.85;99656.13;4990907;28;20034;-79
2022/09/28 09:09:09;;;;;;;6.00;1.88;;;;;;;14.66;82.03;99651.41;4987078;28;20088;-79
2022/09/28 09:12:20;;;;;;;10.10;2.28;;;;;;;14.28;84.00;99658.94;4989480;28;20518;-79
2022/09/28 09:14:53;;;;;;;5.20;1.73;;;;;;;14.00;84.61;99656.09;4947964;28;20050;-78
2022/09/28 09:17:42;;;;;;;9.68;1.75;;;;;;;13.65;86.71;99666.84;4992940;28;20054;-78
2022/09/28 09:20:24;;;;;;;4.35;1.60;;;;;;;13.59;87.61;99663.19;4995209;28;20120;-78
2022/09/28 09:23:00;;;;;;;8.85;1.45;;;;;;;13.37;88.54;99657.47;4995206;28;20154;-79
2022/09/28 09:25:49;;;;;;;5.35;1.17;;;;;;;13.21;88.75;99664.28;4992779;28;20046;-79
2022/09/28 09:28:37;;;;;;;3.83;1.02;;;;;;;13.09;89.68;99663.44;4989358;28;20109;-79
2022/09/28 09:31:42;;;;;;;6.22;1.10;;;;;;;13.05;89.87;99668.44;4991157;28;20050;-79
2022/09/28 09:34:22;;;;;;;4.68;0.90;;;;;;;13.16;90.68;99666.84;4985420;28;20056;-78
2022/09/28 09:37:09;;;;;;;10.93;1.25;;;;;;;13.41;92.16;99671.38;4970724;28;20117;-79
2022/09/28 09:39:43;;;;;;;2.90;0.90;;;;;;;13.60;91.47;99667.53;4991929;28;20038;-78
2022/09/28 09:42:32;;;;;;;6.43;1.27;;;;;;;14.02;90.28;99664.81;4972238;28;20035;-77
2022/09/28 09:45:40;;;;;;;3.63;0.93;;;;;;;14.01;85.47;99665.88;4990417;28;20506;-78
2022/09/28 09:48:38;;;;;;;8.45;1.08;;;;;;;13.87;82.91;99659.03;4993826;28;20042;-77
2022/09/28 09:51:23;;;;;;;;;;;;;;;13.75;82.79;99657.13;4940412;28;20050;-77
2022/09/28 09:53:58;;;;;;;5.57;0.98;;;;;;;13.65;83.35;99656.84;4988688;28;19921;-77
2022/09/28 09:56:39;;;;;;;8.98;0.80;;;;;;;13.78;83.14;99656.66;4972897;28;20113;-78
2022/09/28 09:59:08;;;;;;;16.67;1.15;;;;;;;13.99;85.57;99652.56;4985008;28;20035;-77
2022/09/28 10:01:39;;;;;;;5.80;0.90;;;;;;;14.25;83.62;99655.91;4974358;28;20041;-78
2022/09/28 10:04:11;;;;;;;7.03;1.20;;;;;;;14.52;83.47;99661.66;4974385;28;20113;-77
2022/09/28 10:06:37;;;;;;;6.82;0.60;;;;;;;14.51;81.11;99660.00;4974266;28;20437;-78
2022/09/28 10:09:05;;;;;;;15.27;1.25;;;;;;;14.55;80.87;99655.78;4991513;28;20042;-77
2022/09/28 10:11:34;;;;;;;2.88;1.40;;;;;;;14.49;78.08;99662.13;4989591;28;20415;-77
2022/09/28 10:14:00;;;;;;;4.97;0.80;;;;;;;14.54;77.83;99664.97;4957222;28;20520;-77
2022/09/28 10:16:26;;;;;;;5.75;0.57;;;;;;;14.56;79.72;99660.16;4990767;28;20110;-77
2022/09/28 10:18:51;;;;;;;8.80;1.02;;;;;;;14.63;78.18;99655.41;4989615;28;20029;-77
2022/09/28 10:21:19;;;;;;;10.73;1.00;;;;;;;14.51;78.05;99654.59;4991106;28;20232;-77
2022/09/28 10:23:46;;;;;;;5.47;1.60;;;;;;;14.24;78.87;99651.53;4990161;28;20034;-77
2022/09/28 10:26:14;;;;;;;5.00;1.08;;;;;;;14.13;79.75;99658.56;4991397;28;20097;-77
2022/09/28 10:28:49;;;;;;;6.22;1.38;;;;;;;13.88;81.08;99655.28;4989539;28;20117;-77
2022/09/28 10:31:36;;;;;;;4.65;1.02;;;;;;;13.76;80.14;99653.34;4990567;28;20096;-76
2022/09/28 10:34:03;;;;;;;4.78;0.85;;;;;;;13.51;81.80;99655.41;4990997;28;20224;-76
2022/09/28 10:36:37;;;;;;;6.22;1.30;;;;;;;13.54;83.27;99654.94;4990744;28;20489;-77
2022/09/28 10:39:03;;;;;;;10.90;1.33;;;;;;;13.74;84.54;99657.34;4988690;28;20099;-77
2022/09/28 10:41:30;;;;;;;2.85;1.20;;;;;;;13.97;84.97;99654.69;4988350;28;20035;-79
2022/09/28 10:44:07;;;;;;;3.83;1.40;;;;;;;13.88;80.80;99658.78;4988369;28;20026;-76
2022/09/28 10:46:33;;;;;;;6.30;1.30;;;;;;;13.93;81.20;99660.78;4970544;28;20516;-76
2022/09/28 10:49:27;;;;;;;5.50;1.17;;;;;;;13.75;79.81;99659.00;4973033;28;20042;-76
2022/09/28 10:51:53;;;;;;;4.78;1.20;;;;;;;13.72;80.68;99654.88;4988320;28;20054;-76
2022/09/28 10:54:29;;;;;;;2.33;0.88;;;;;;;13.74;81.77;99658.16;4977423;28;20054;-77
2022/09/28 10:56:56;;;;;;;6.18;0.80;;;;;;;14.09;81.98;99662.81;4991524;28;20038;-77
2022/09/28 10:59:28;;;;;;;8.90;1.83;;;;;;;14.39;78.62;99665.41;4971804;28;20490;-77
2022/09/28 11:01:56;;;;;;;3.65;0.70;;;;;;;14.77;77.43;99652.44;4992859;28;20042;-77
2022/09/28 11:04:25;;;;;;;6.97;1.05;;;;;;;14.87;77.62;99656.19;4991470;28;20033;-77
2022/09/28 11:06:51;;;;;;;7.78;1.13;;;;;;;15.08;78.17;99660.13;4974703;28;20042;-76
2022/09/28 11:09:29;;;;;;;10.63;2.13;;;;;;;15.34;78.32;99658.75;4991214;28;20489;-75
2022/09/28 11:11:56;;;;;;;1.58;0.80;;;;;;;15.51;75.15;99664.22;4989919;28;20050;-77
2022/09/28 11:14:39;;;;;;;5.85;0.65;;;;;;;15.61;73.40;99652.72;4990371;28;20444;-77
2022/09/28 11:17:23;;;;;;;3.10;0.60;;;;;;;15.54;71.30;99658.31;4979283;28;20042;-77
2022/09/28 11:19:48;;;;;;;2.53;0.50;;;;;;;15.49;70.00;99663.66;4988977;28;20054;-77
2022/09/28 11:22:25;;;;;;;3.58;0.80;;;;;;;15.49;67.36;99652.81;4990370;28;20113;-78
2022/09/28 11:24:50;;;;;;;4.75;0.80;;;;;;;15.61;67.00;99652.72;4989723;28;20038;-77
2022/09/28 11:27:24;;;;;;;3.30;0.65;;;;;;;15.77;69.68;99653.84;4982818;28;20022;-77
2022/09/28 11:30:21;;;;;;;2.78;0.60;;;;;;;15.94;69.05;99654.69;4990073;28;20065;-77
2022/09/28 11:32:46;;;;;;;3.20;1.05;;;;;;;16.17;64.54;99658.31;4990914;28;20034;-77
2022/09/28 11:35:18;;;;;;;4.15;0.80;;;;;;;16.88;64.74;99656.63;4992039;28;20146;-77
2022/09/28 11:37:55;;;;;;;7.22;0.80;;;;;;;17.82;60.68;99656.56;4990792;28;20097;-77
2022/09/28 11:41:09;;;;;;;2.88;0.75;;;;;;;18.67;58.35;99653.91;4972505;28;20555;-77
2022/09/28 11:44:07;;;;;;;13.70;1.77;;;;;;;18.86;58.87;99660.59;4916512;28;20048;-77
2022/09/28 11:46:50;;;;;;;2.47;0.70;;;;;;;18.76;56.37;99658.63;4956888;28;20054;-76
2022/09/28 11:49:16;;;;;;;6.72;0.80;;;;;;;18.81;53.86;99661.38;4988507;28;20041;-77
2022/09/28 11:51:42;;;;;;;2.08;0.63;;;;;;;18.59;56.01;99666.97;4987649;28;20042;-76
2022/09/28 11:54:37;;;;;;;6.67;1.03;;;;;;;18.16;55.82;99662.56;4987796;28;20038;-76
2022/09/28 11:57:03;;;;;;;8.35;0.75;;;;;;;17.70;56.99;99671.13;4974863;28;20093;-75